sensor_id;sensor_type;location;lat;lon;timestamp;pressure;altitude;pressure_sealevel;temperature;humidity
12219;BME280;6172;42.646;23.344;2022-11-20T00:01:33;93930.34;;;13.29;100.00
12219;BME280;6172;42.646;23.344;2022-11-20T00:04:02;93926.53;;;12.96;100.00
12219;BME280;6172;42.646;23.344;2022-11-20T00:06:30;93921.75;;;13.09;100.00
12219;BME280;6172;42.646;23.344;2022-11-20T00:08:59;93919.00;;;12.79;100.00
12219;BME280;6172;42.646;23.344;2022-11-20T00:11:29;93905.09;;;12.95;100.00
12219;BME280;6172;42.646;23.344;2022-11-20T00:13:59;93878.06;;;12.97;100.00
12219;BME280;6172;42.646;23.344;2022-11-20T00:16:28;93882.66;;;13.00;100.00
12219;BME280;6172;42.646;23.344;2022-11-20T00:18:58;93942.63;;;12.73;100.00
12219;BME280;6172;42.646;23.344;2022-11-20T00:21:26;93885.34;;;13.21;100.00
12219;BME280;6172;42.646;23.344;2022-11-20T00:23:54;93882.34;;;13.68;100.00
12219;BME280;6172;42.646;23.344;2022-11-20T00:26:23;93871.44;;;13.86;100.00
12219;BME280;6172;42.646;23.344;2022-11-20T00:28:52;93852.72;;;14.65;100.00
12219;BME280;6172;42.646;23.344;2022-11-20T00:31:19;93826.31;;;14.95;100.00
12219;BME280;6172;42.646;23.344;2022-11-20T00:33:46;93858.09;;;15.20;100.00
12219;BME280;6172;42.646;23.344;2022-11-20T00:36:16;93844.69;;;15.54;100.00
12219;BME280;6172;42.646;23.344;2022-11-20T00:38:43;93866.31;;;15.61;100.00
12219;BME280;6172;42.646;23.344;2022-11-20T00:41:15;93883.25;;;15.27;100.00
12219;BME280;6172;42.646;23.344;2022-11-20T00:43:42;93850.53;;;15.47;100.00
12219;BME280;6172;42.646;23.344;2022-11-20T00:46:13;93905.31;;;15.83;98.94
12219;BME280;6172;42.646;23.344;2022-11-20T00:48:41;93850.72;;;16.00;94.49
12219;BME280;6172;42.646;23.344;2022-11-20T00:51:08;93857.88;;;16.21;90.10
12219;BME280;6172;42.646;23.344;2022-11-20T00:53:36;93876.81;;;16.42;83.67
12219;BME280;6172;42.646;23.344;2022-11-20T00:56:05;93875.03;;;16.39;84.52
12219;BME280;6172;42.646;23.344;2022-11-20T00:58:34;93909.38;;;16.58;83.49
12219;BME280;6172;42.646;23.344;2022-11-20T01:01:02;93880.84;;;16.18;92.98
12219;BME280;6172;42.646;23.344;2022-11-20T01:03:31;93861.69;;;16.61;81.59
12219;BME280;6172;42.646;23.344;2022-11-20T01:06:02;93860.75;;;16.64;81.45
12219;BME280;6172;42.646;23.344;2022-11-20T01:08:30;93831.41;;;16.61;80.82
12219;BME280;6172;42.646;23.344;2022-11-20T01:11:00;93838.47;;;16.77;78.25
12219;BME280;6172;42.646;23.344;2022-11-20T01:13:28;93864.91;;;16.98;74.82
12219;BME280;6172;42.646;23.344;2022-11-20T01:16:06;93844.69;;;17.01;74.48
12219;BME280;6172;42.646;23.344;2022-11-20T01:18:34;93840.59;;;16.96;76.90
12219;BME280;6172;42.646;23.344;2022-11-20T01:21:03;93863.16;;;16.86;77.05
12219;BME280;6172;42.646;23.344;2022-11-20T01:23:32;93844.84;;;16.68;78.81
12219;BME280;6172;42.646;23.344;2022-11-20T01:26:01;93843.16;;;16.71;78.18
12219;BME280;6172;42.646;23.344;2022-11-20T01:28:29;93832.34;;;16.44;82.58
12219;BME280;6172;42.646;23.344;2022-11-20T01:30:56;93873.06;;;16.54;82.57
12219;BME280;6172;42.646;23.344;2022-11-20T01:33:24;93798.78;;;16.54;80.96
12219;BME280;6172;42.646;23.344;2022-11-20T01:35:51;93843.97;;;16.01;91.82
12219;BME280;6172;42.646;23.344;2022-11-20T01:38:18;93830.53;;;16.03;91.49
12219;BME280;6172;42.646;23.344;2022-11-20T01:40:53;93832.69;;;15.75;94.58
12219;BME280;6172;42.646;23.344;2022-11-20T01:43:23;93820.72;;;15.87;94.83
12219;BME280;6172;42.646;23.344;2022-11-20T01:46:12;93801.28;;;16.14;86.44
12219;BME280;6172;42.646;23.344;2022-11-20T01:48:44;93770.31;;;16.28;83.36
12219;BME280;6172;42.646;23.344;2022-11-20T01:51:17;93794.31;;;16.42;82.31
12219;BME280;6172;42.646;23.344;2022-11-20T01:53:46;93798.25;;;16.27;86.33
12219;BME280;6172;42.646;23.344;2022-11-20T01:56:14;93807.72;;;15.88;93.33
12219;BME280;6172;42.646;23.344;2022-11-20T01:58:49;93804.13;;;15.82;95.84
12219;BME280;6172;42.646;23.344;2022-11-20T02:01:18;93803.44;;;15.63;98.96
12219;BME280;6172;42.646;23.344;2022-11-20T02:03:46;93818.50;;;15.77;91.97
12219;BME280;6172;42.646;23.344;2022-11-20T02:06:17;93821.44;;;15.73;94.12
12219;BME280;6172;42.646;23.344;2022-11-20T02:08:46;93813.47;;;15.99;87.51
12219;BME280;6172;42.646;23.344;2022-11-20T02:11:12;93838.75;;;15.79;92.15
12219;BME280;6172;42.646;23.344;2022-11-20T02:13:40;93834.88;;;15.95;87.87
12219;BME280;6172;42.646;23.344;2022-11-20T02:16:12;93835.97;;;15.88;92.32
12219;BME280;6172;42.646;23.344;2022-11-20T02:18:41;93835.38;;;15.84;92.54
12219;BME280;6172;42.646;23.344;2022-11-20T02:21:14;93824.16;;;16.20;83.29
12219;BME280;6172;42.646;23.344;2022-11-20T02:24:00;93815.03;;;16.52;79.29
12219;BME280;6172;42.646;23.344;2022-11-20T02:26:29;93833.47;;;16.37;81.55
12219;BME280;6172;42.646;23.344;2022-11-20T02:28:58;93826.50;;;16.51;79.67
12219;BME280;6172;42.646;23.344;2022-11-20T02:31:26;93815.69;;;16.62;77.82
12219;BME280;6172;42.646;23.344;2022-11-20T02:33:57;93846.06;;;16.67;77.61
12219;BME280;6172;42.646;23.344;2022-11-20T02:36:26;93815.13;;;16.58;77.54
12219;BME280;6172;42.646;23.344;2022-11-20T02:38:53;93823.28;;;16.52;77.92
12219;BME280;6172;42.646;23.344;2022-11-20T02:41:32;93820.41;;;16.61;78.21
12219;BME280;6172;42.646;23.344;2022-11-20T02:43:59;93822.69;;;16.63;78.19
12219;BME280;6172;42.646;23.344;2022-11-20T02:46:27;93831.66;;;16.72;78.31
12219;BME280;6172;42.646;23.344;2022-11-20T02:48:54;93840.66;;;16.73;78.87
12219;BME280;6172;42.646;23.344;2022-11-20T02:51:21;93832.41;;;16.73;79.46
12219;BME280;6172;42.646;23.344;2022-11-20T02:53:48;93847.31;;;16.66;81.02
12219;BME280;6172;42.646;23.344;2022-11-20T02:56:15;93853.25;;;16.65;82.86
12219;BME280;6172;42.646;23.344;2022-11-20T02:58:43;93839.63;;;16.70;83.47
12219;BME280;6172;42.646;23.344;2022-11-20T03:01:10;93823.28;;;16.67;85.08
12219;BME280;6172;42.646;23.344;2022-11-20T03:03:37;93850.22;;;16.63;86.43
12219;BME280;6172;42.646;23.344;2022-11-20T03:06:05;93856.66;;;16.60;86.76
12219;BME280;6172;42.646;23.344;2022-11-20T03:08:33;93865.66;;;16.60;86.59
12219;BME280;6172;42.646;23.344;2022-11-20T03:11:03;93852.69;;;16.61;87.01
12219;BME280;6172;42.646;23.344;2022-11-20T03:13:30;93844.03;;;16.53;85.91
12219;BME280;6172;42.646;23.344;2022-11-20T03:16:03;93835.97;;;16.50;86.29
12219;BME280;6172;42.646;23.344;2022-11-20T03:18:30;93847.72;;;16.50;87.16
12219;BME280;6172;42.646;23.344;2022-11-20T03:20:58;93851.00;;;16.40;88.06
12219;BME280;6172;42.646;23.344;2022-11-20T03:23:25;93874.66;;;16.46;87.91
12219;BME280;6172;42.646;23.344;2022-11-20T03:25:54;93853.13;;;16.45;88.14
12219;BME280;6172;42.646;23.344;2022-11-20T03:28:21;93837.09;;;16.43;87.86
12219;BME280;6172;42.646;23.344;2022-11-20T03:30:48;93840.13;;;16.45;87.25
12219;BME280;6172;42.646;23.344;2022-11-20T03:33:16;93866.09;;;16.44;87.72
12219;BME280;6172;42.646;23.344;2022-11-20T03:35:43;93857.38;;;16.46;88.17
12219;BME280;6172;42.646;23.344;2022-11-20T03:38:10;93858.16;;;16.46;87.40
12219;BME280;6172;42.646;23.344;2022-11-20T03:40:37;93845.34;;;16.43;88.26
12219;BME280;6172;42.646;23.344;2022-11-20T03:43:04;93874.66;;;16.46;87.88
12219;BME280;6172;42.646;23.344;2022-11-20T03:45:32;93859.50;;;16.51;87.39
12219;BME280;6172;42.646;23.344;2022-11-20T03:48:02;93875.22;;;16.50;87.20
12219;BME280;6172;42.646;23.344;2022-11-20T03:50:31;93887.75;;;16.51;87.39
12219;BME280;6172;42.646;23.344;2022-11-20T03:52:58;93884.88;;;16.46;86.96
12219;BME280;6172;42.646;23.344;2022-11-20T03:55:25;93861.28;;;16.39;87.16
12219;BME280;6172;42.646;23.344;2022-11-20T03:57:51;93858.38;;;16.34;87.66
12219;BME280;6172;42.646;23.344;2022-11-20T04:00:18;93883.28;;;16.39;88.61
12219;BME280;6172;42.646;23.344;2022-11-20T04:02:45;93868.28;;;16.40;87.56
12219;BME280;6172;42.646;23.344;2022-11-20T04:05:12;93865.69;;;16.37;87.37
12219;BME280;6172;42.646;23.344;2022-11-20T04:07:40;93885.56;;;16.41;87.02
12219;BME280;6172;42.646;23.344;2022-11-20T04:10:08;93863.06;;;16.42;86.11
12219;BME280;6172;42.646;23.344;2022-11-20T04:12:35;93866.63;;;16.34;86.05
12219;BME280;6172;42.646;23.344;2022-11-20T04:15:02;93877.47;;;16.37;86.56
12219;BME280;6172;42.646;23.344;2022-11-20T04:17:29;93898.91;;;16.33;86.65
12219;BME280;6172;42.646;23.344;2022-11-20T04:19:56;93880.38;;;16.34;87.08
12219;BME280;6172;42.646;23.344;2022-11-20T04:22:23;93890.69;;;16.24;87.57
12219;BME280;6172;42.646;23.344;2022-11-20T04:24:52;93889.88;;;16.33;88.61
12219;BME280;6172;42.646;23.344;2022-11-20T04:27:19;93891.38;;;16.19;90.66
12219;BME280;6172;42.646;23.344;2022-11-20T04:29:47;93892.94;;;16.11;91.26
12219;BME280;6172;42.646;23.344;2022-11-20T04:32:14;93888.19;;;16.12;91.70
12219;BME280;6172;42.646;23.344;2022-11-20T04:34:40;93908.38;;;16.09;92.52
12219;BME280;6172;42.646;23.344;2022-11-20T04:37:07;93878.59;;;16.07;93.30
12219;BME280;6172;42.646;23.344;2022-11-20T04:39:35;93899.47;;;16.14;94.45
12219;BME280;6172;42.646;23.344;2022-11-20T04:42:03;93917.38;;;16.09;94.80
12219;BME280;6172;42.646;23.344;2022-11-20T04:44:47;93919.78;;;16.16;93.39
12219;BME280;6172;42.646;23.344;2022-11-20T04:47:14;93903.91;;;16.11;93.59
12219;BME280;6172;42.646;23.344;2022-11-20T04:49:41;93921.66;;;16.10;93.33
12219;BME280;6172;42.646;23.344;2022-11-20T04:52:08;93891.53;;;16.16;93.17
12219;BME280;6172;42.646;23.344;2022-11-20T04:54:34;93907.91;;;16.10;93.79
12219;BME280;6172;42.646;23.344;2022-11-20T04:57:03;93896.59;;;16.08;91.99
12219;BME280;6172;42.646;23.344;2022-11-20T04:59:30;93875.19;;;16.12;90.35
12219;BME280;6172;42.646;23.344;2022-11-20T05:01:57;93880.41;;;16.10;90.69
12219;BME280;6172;42.646;23.344;2022-11-20T05:04:24;93872.06;;;16.05;92.23
12219;BME280;6172;42.646;23.344;2022-11-20T05:06:51;93888.56;;;16.05;92.91
12219;BME280;6172;42.646;23.344;2022-11-20T05:09:18;93885.97;;;16.01;94.62
12219;BME280;6172;42.646;23.344;2022-11-20T05:11:44;93902.66;;;15.98;96.85
12219;BME280;6172;42.646;23.344;2022-11-20T05:14:13;93874.19;;;16.01;95.44
12219;BME280;6172;42.646;23.344;2022-11-20T05:16:40;93875.28;;;16.03;95.96
12219;BME280;6172;42.646;23.344;2022-11-20T05:19:07;93887.25;;;15.91;99.70
12219;BME280;6172;42.646;23.344;2022-11-20T05:21:34;93874.22;;;15.77;100.00
12219;BME280;6172;42.646;23.344;2022-11-20T05:24:01;93883.97;;;15.78;100.00
12219;BME280;6172;42.646;23.344;2022-11-20T05:26:28;93859.88;;;15.73;100.00
12219;BME280;6172;42.646;23.344;2022-11-20T05:28:55;93840.00;;;15.69;100.00
12219;BME280;6172;42.646;23.344;2022-11-20T05:31:24;93855.91;;;15.65;100.00
12219;BME280;6172;42.646;23.344;2022-11-20T05:33:52;93817.47;;;15.65;100.00
12219;BME280;6172;42.646;23.344;2022-11-20T05:36:19;93849.84;;;15.61;100.00
12219;BME280;6172;42.646;23.344;2022-11-20T05:38:46;93849.84;;;15.61;100.00
12219;BME280;6172;42.646;23.344;2022-11-20T05:41:15;93865.44;;;15.55;100.00
12219;BME280;6172;42.646;23.344;2022-11-20T05:43:43;93875.47;;;15.58;100.00
12219;BME280;6172;42.646;23.344;2022-11-20T05:46:12;93854.41;;;15.64;100.00
12219;BME280;6172;42.646;23.344;2022-11-20T05:48:42;93849.50;;;15.68;100.00
12219;BME280;6172;42.646;23.344;2022-11-20T05:51:13;93850.41;;;15.65;100.00
12219;BME280;6172;42.646;23.344;2022-11-20T05:53:41;93823.41;;;15.73;99.64
12219;BME280;6172;42.646;23.344;2022-11-20T05:56:09;93836.31;;;15.81;100.00
12219;BME280;6172;42.646;23.344;2022-11-20T05:58:39;93858.47;;;15.78;100.00
12219;BME280;6172;42.646;23.344;2022-11-20T06:01:07;93855.59;;;15.72;100.00
12219;BME280;6172;42.646;23.344;2022-11-20T06:03:36;93858.97;;;15.76;100.00
12219;BME280;6172;42.646;23.344;2022-11-20T06:06:06;93852.50;;;15.79;98.97
12219;BME280;6172;42.646;23.344;2022-11-20T06:08:33;93864.16;;;15.74;100.00
12219;BME280;6172;42.646;23.344;2022-11-20T06:11:04;93857.06;;;15.82;96.27
12219;BME280;6172;42.646;23.344;2022-11-20T06:13:31;93872.94;;;15.87;94.40
12219;BME280;6172;42.646;23.344;2022-11-20T06:15:58;93858.38;;;15.96;92.99
12219;BME280;6172;42.646;23.344;2022-11-20T06:18:26;93869.16;;;15.99;94.19
12219;BME280;6172;42.646;23.344;2022-11-20T06:20:59;93856.38;;;15.96;94.18
12219;BME280;6172;42.646;23.344;2022-11-20T06:23:30;93867.66;;;15.98;94.42
12219;BME280;6172;42.646;23.344;2022-11-20T06:26:00;93875.84;;;16.07;93.76
12219;BME280;6172;42.646;23.344;2022-11-20T06:28:27;93880.41;;;16.10;93.46
12219;BME280;6172;42.646;23.344;2022-11-20T06:30:56;93902.50;;;15.92;100.00
12219;BME280;6172;42.646;23.344;2022-11-20T06:33:23;93885.91;;;15.87;98.34
12219;BME280;6172;42.646;23.344;2022-11-20T06:35:50;93877.53;;;15.81;100.00
12219;BME280;6172;42.646;23.344;2022-11-20T06:38:17;93905.88;;;15.55;100.00
12219;BME280;6172;42.646;23.344;2022-11-20T06:40:46;93894.72;;;15.58;100.00
12219;BME280;6172;42.646;23.344;2022-11-20T06:43:13;93899.88;;;15.65;100.00
12219;BME280;6172;42.646;23.344;2022-11-20T06:45:40;93898.88;;;15.86;99.88
12219;BME280;6172;42.646;23.344;2022-11-20T06:48:07;93898.34;;;15.97;100.00
12219;BME280;6172;42.646;23.344;2022-11-20T06:50:36;93893.69;;;16.12;100.00
12219;BME280;6172;42.646;23.344;2022-11-20T06:53:03;93904.63;;;15.97;100.00
12219;BME280;6172;42.646;23.344;2022-11-20T06:55:31;93893.78;;;15.94;100.00
12219;BME280;6172;42.646;23.344;2022-11-20T06:58:01;93908.53;;;15.82;100.00
12219;BME280;6172;42.646;23.344;2022-11-20T07:00:28;93894.44;;;16.12;95.74
12219;BME280;6172;42.646;23.344;2022-11-20T07:02:54;93919.25;;;16.50;84.23
12219;BME280;6172;42.646;23.344;2022-11-20T07:05:22;93918.38;;;16.68;81.80
12219;BME280;6172;42.646;23.344;2022-11-20T07:07:49;93914.78;;;16.76;81.34
12219;BME280;6172;42.646;23.344;2022-11-20T07:10:16;93917.16;;;16.83;81.42
12219;BME280;6172;42.646;23.344;2022-11-20T07:12:49;93907.94;;;16.72;84.59
12219;BME280;6172;42.646;23.344;2022-11-20T07:15:20;93905.97;;;16.72;85.15
12219;BME280;6172;42.646;23.344;2022-11-20T07:17:47;93909.69;;;16.60;92.13
12219;BME280;6172;42.646;23.344;2022-11-20T07:20:15;93911.50;;;16.63;89.53
12219;BME280;6172;42.646;23.344;2022-11-20T07:22:42;93915.81;;;16.55;87.52
12219;BME280;6172;42.646;23.344;2022-11-20T07:25:09;93938.38;;;16.68;88.64
12219;BME280;6172;42.646;23.344;2022-11-20T07:27:36;93915.09;;;16.55;94.74
12219;BME280;6172;42.646;23.344;2022-11-20T07:30:04;93923.34;;;16.55;93.93
12219;BME280;6172;42.646;23.344;2022-11-20T07:32:33;93936.50;;;16.51;90.94
12219;BME280;6172;42.646;23.344;2022-11-20T07:35:00;93929.66;;;16.46;87.17
12219;BME280;6172;42.646;23.344;2022-11-20T07:37:27;93935.63;;;16.45;92.08
12219;BME280;6172;42.646;23.344;2022-11-20T07:39:55;93917.91;;;16.46;90.92
12219;BME280;6172;42.646;23.344;2022-11-20T07:42:21;93916.53;;;16.41;93.73
12219;BME280;6172;42.646;23.344;2022-11-20T07:44:48;93907.78;;;16.28;93.02
12219;BME280;6172;42.646;23.344;2022-11-20T07:47:15;93913.53;;;16.39;91.50
12219;BME280;6172;42.646;23.344;2022-11-20T07:49:43;93906.13;;;16.45;92.08
12219;BME280;6172;42.646;23.344;2022-11-20T07:52:10;93909.38;;;16.20;98.16
12219;BME280;6172;42.646;23.344;2022-11-20T07:54:37;93919.91;;;15.89;100.00
12219;BME280;6172;42.646;23.344;2022-11-20T07:57:05;93919.78;;;15.84;100.00
12219;BME280;6172;42.646;23.344;2022-11-20T07:59:32;93936.47;;;15.80;100.00
12219;BME280;6172;42.646;23.344;2022-11-20T08:01:59;93930.59;;;15.96;100.00
12219;BME280;6172;42.646;23.344;2022-11-20T08:04:26;93932.19;;;15.79;100.00
12219;BME280;6172;42.646;23.344;2022-11-20T08:06:54;93920.72;;;15.81;100.00
12219;BME280;6172;42.646;23.344;2022-11-20T08:09:21;93927.53;;;15.94;100.00
12219;BME280;6172;42.646;23.344;2022-11-20T08:11:48;93913.16;;;15.58;100.00
12219;BME280;6172;42.646;23.344;2022-11-20T08:14:32;93918.41;;;15.88;100.00
12219;BME280;6172;42.646;23.344;2022-11-20T08:16:59;93916.16;;;16.10;100.00
12219;BME280;6172;42.646;23.344;2022-11-20T08:19:27;93924.50;;;16.16;100.00
12219;BME280;6172;42.646;23.344;2022-11-20T08:21:56;93918.78;;;16.28;100.00
12219;BME280;6172;42.646;23.344;2022-11-20T08:24:23;93927.31;;;16.30;100.00
12219;BME280;6172;42.646;23.344;2022-11-20T08:26:52;93947.78;;;16.53;100.00
12219;BME280;6172;42.646;23.344;2022-11-20T08:29:19;93932.53;;;16.28;100.00
12219;BME280;6172;42.646;23.344;2022-11-20T08:31:46;93935.34;;;16.43;100.00
12219;BME280;6172;42.646;23.344;2022-11-20T08:34:13;93932.13;;;16.68;100.00
12219;BME280;6172;42.646;23.344;2022-11-20T08:36:39;93925.81;;;16.91;99.20
12219;BME280;6172;42.646;23.344;2022-11-20T08:39:11;93921.09;;;17.06;97.96
12219;BME280;6172;42.646;23.344;2022-11-20T08:41:38;93929.66;;;17.22;96.98
12219;BME280;6172;42.646;23.344;2022-11-20T08:44:06;93940.66;;;17.22;96.27
12219;BME280;6172;42.646;23.344;2022-11-20T08:46:35;93958.41;;;17.21;94.77
12219;BME280;6172;42.646;23.344;2022-11-20T08:49:03;93959.53;;;17.15;94.37
12219;BME280;6172;42.646;23.344;2022-11-20T08:51:30;93958.09;;;16.67;100.00
12219;BME280;6172;42.646;23.344;2022-11-20T08:53:57;93978.13;;;16.67;100.00
12219;BME280;6172;42.646;23.344;2022-11-20T08:56:26;93970.38;;;16.57;100.00
12219;BME280;6172;42.646;23.344;2022-11-20T08:58:52;93965.94;;;16.59;100.00
12219;BME280;6172;42.646;23.344;2022-11-20T09:01:21;93963.31;;;16.41;100.00
12219;BME280;6172;42.646;23.344;2022-11-20T09:03:48;93967.91;;;16.68;100.00
12219;BME280;6172;42.646;23.344;2022-11-20T09:06:17;93967.25;;;16.49;100.00
12219;BME280;6172;42.646;23.344;2022-11-20T09:08:44;93960.19;;;16.48;100.00
12219;BME280;6172;42.646;23.344;2022-11-20T09:11:11;93963.84;;;16.31;100.00
12219;BME280;6172;42.646;23.344;2022-11-20T09:13:42;93969.66;;;16.00;100.00
12219;BME280;6172;42.646;23.344;2022-11-20T09:16:09;93986.97;;;15.83;100.00
12219;BME280;6172;42.646;23.344;2022-11-20T09:18:36;93979.38;;;15.69;100.00
12219;BME280;6172;42.646;23.344;2022-11-20T09:21:04;93984.09;;;15.59;100.00
12219;BME280;6172;42.646;23.344;2022-11-20T09:23:33;93979.59;;;15.47;100.00
12219;BME280;6172;42.646;23.344;2022-11-20T09:26:04;93995.59;;;15.49;100.00
12219;BME280;6172;42.646;23.344;2022-11-20T09:28:32;93973.84;;;15.27;100.00
12219;BME280;6172;42.646;23.344;2022-11-20T09:31:00;93955.22;;;15.22;100.00
12219;BME280;6172;42.646;23.344;2022-11-20T09:33:31;93972.75;;;15.34;100.00
12219;BME280;6172;42.646;23.344;2022-11-20T09:35:58;93969.53;;;15.35;100.00
12219;BME280;6172;42.646;23.344;2022-11-20T09:38:25;93963.28;;;15.35;100.00
12219;BME280;6172;42.646;23.344;2022-11-20T09:40:56;93963.13;;;15.29;100.00
12219;BME280;6172;42.646;23.344;2022-11-20T09:43:32;93946.25;;;15.22;100.00
12219;BME280;6172;42.646;23.344;2022-11-20T09:46:11;93939.38;;;15.17;100.00
12219;BME280;6172;42.646;23.344;2022-11-20T09:48:51;93952.19;;;15.20;100.00
12219;BME280;6172;42.646;23.344;2022-11-20T09:51:30;93938.75;;;15.22;100.00
12219;BME280;6172;42.646;23.344;2022-11-20T09:54:12;93937.38;;;15.27;100.00
12219;BME280;6172;42.646;23.344;2022-11-20T09:56:44;93932.47;;;15.40;100.00
12219;BME280;6172;42.646;23.344;2022-11-20T09:59:23;93928.03;;;15.42;100.00
12219;BME280;6172;42.646;23.344;2022-11-20T10:01:54;93938.09;;;15.36;100.00
12219;BME280;6172;42.646;23.344;2022-11-20T10:04:22;93934.50;;;16.04;100.00
12219;BME280;6172;42.646;23.344;2022-11-20T10:06:53;93924.34;;;16.66;100.00
12219;BME280;6172;42.646;23.344;2022-11-20T10:09:28;93919.59;;;17.34;100.00
12219;BME280;6172;42.646;23.344;2022-11-20T10:12:06;93922.13;;;17.08;100.00
12219;BME280;6172;42.646;23.344;2022-11-20T10:14:45;93899.34;;;16.93;100.00
12219;BME280;6172;42.646;23.344;2022-11-20T10:17:24;93909.59;;;16.55;100.00
12219;BME280;6172;42.646;23.344;2022-11-20T10:20:09;93898.91;;;16.71;100.00
12219;BME280;6172;42.646;23.344;2022-11-20T10:22:51;93915.56;;;17.06;100.00
12219;BME280;6172;42.646;23.344;2022-11-20T10:25:22;93902.28;;;17.04;100.00
12219;BME280;6172;42.646;23.344;2022-11-20T10:28:03;93893.97;;;16.14;100.00
12219;BME280;6172;42.646;23.344;2022-11-20T10:30:38;93899.31;;;16.41;100.00
12219;BME280;6172;42.646;23.344;2022-11-20T10:33:13;93904.28;;;16.28;100.00
12219;BME280;6172;42.646;23.344;2022-11-20T10:35:45;93896.84;;;16.66;100.00
12219;BME280;6172;42.646;23.344;2022-11-20T10:38:20;93902.94;;;16.61;100.00
12219;BME280;6172;42.646;23.344;2022-11-20T10:40:51;93903.97;;;16.87;100.00
12219;BME280;6172;42.646;23.344;2022-11-20T10:43:21;93922.50;;;16.63;100.00
12219;BME280;6172;42.646;23.344;2022-11-20T10:45:56;93914.88;;;16.58;100.00
12219;BME280;6172;42.646;23.344;2022-11-20T10:48:28;93899.16;;;16.59;100.00
12219;BME280;6172;42.646;23.344;2022-11-20T10:51:08;93910.59;;;16.19;100.00
12219;BME280;6172;42.646;23.344;2022-11-20T10:53:46;93924.13;;;15.99;100.00
12219;BME280;6172;42.646;23.344;2022-11-20T10:56:21;93936.28;;;15.84;100.00
12219;BME280;6172;42.646;23.344;2022-11-20T10:59:03;93937.50;;;15.83;100.00
12219;BME280;6172;42.646;23.344;2022-11-20T11:01:39;93940.00;;;15.72;100.00
12219;BME280;6172;42.646;23.344;2022-11-20T11:04:28;93954.59;;;15.87;100.00
12219;BME280;6172;42.646;23.344;2022-11-20T11:07:06;93951.75;;;15.72;100.00
12219;BME280;6172;42.646;23.344;2022-11-20T11:09:38;93969.38;;;15.39;100.00
12219;BME280;6172;42.646;23.344;2022-11-20T11:12:07;93975.84;;;15.09;100.00
12219;BME280;6172;42.646;23.344;2022-11-20T11:14:42;94004.97;;;14.97;100.00
12219;BME280;6172;42.646;23.344;2022-11-20T11:17:21;94021.03;;;14.50;100.00
12219;BME280;6172;42.646;23.344;2022-11-20T11:20:03;94019.84;;;14.60;100.00
12219;BME280;6172;42.646;23.344;2022-11-20T11:22:31;94010.19;;;14.19;100.00
12219;BME280;6172;42.646;23.344;2022-11-20T11:24:59;93997.19;;;13.71;100.00
12219;BME280;6172;42.646;23.344;2022-11-20T11:27:26;93981.38;;;13.66;100.00
12219;BME280;6172;42.646;23.344;2022-11-20T11:30:10;93969.50;;;13.39;100.00
12219;BME280;6172;42.646;23.344;2022-11-20T11:32:38;93984.38;;;13.38;100.00
12219;BME280;6172;42.646;23.344;2022-11-20T11:35:25;93993.00;;;13.27;100.00
12219;BME280;6172;42.646;23.344;2022-11-20T11:37:53;93988.53;;;12.99;100.00
12219;BME280;6172;42.646;23.344;2022-11-20T11:40:22;93968.94;;;12.79;100.00
12219;BME280;6172;42.646;23.344;2022-11-20T11:43:05;93961.94;;;12.56;100.00
12219;BME280;6172;42.646;23.344;2022-11-20T11:45:53;93955.84;;;12.52;100.00
12219;BME280;6172;42.646;23.344;2022-11-20T11:48:20;93959.03;;;12.38;100.00
12219;BME280;6172;42.646;23.344;2022-11-20T11:50:50;93958.81;;;12.33;100.00
12219;BME280;6172;42.646;23.344;2022-11-20T11:53:19;93946.94;;;12.27;100.00
12219;BME280;6172;42.646;23.344;2022-11-20T11:55:54;93952.41;;;12.27;100.00
12219;BME280;6172;42.646;23.344;2022-11-20T11:58:38;93937.91;;;12.17;100.00
12219;BME280;6172;42.646;23.344;2022-11-20T12:01:20;93932.09;;;12.28;100.00
12219;BME280;6172;42.646;23.344;2022-11-20T12:03:58;93908.47;;;12.21;100.00
12219;BME280;6172;42.646;23.344;2022-11-20T12:06:39;93901.78;;;12.35;100.00
12219;BME280;6172;42.646;23.344;2022-11-20T12:09:11;93899.69;;;12.39;100.00
12219;BME280;6172;42.646;23.344;2022-11-20T12:11:44;93921.53;;;12.39;100.00
12219;BME280;6172;42.646;23.344;2022-11-20T12:14:18;93927.94;;;12.23;100.00
12219;BME280;6172;42.646;23.344;2022-11-20T12:16:50;93943.84;;;12.03;100.00
12219;BME280;6172;42.646;23.344;2022-11-20T12:19:19;93947.72;;;11.81;100.00
12219;BME280;6172;42.646;23.344;2022-11-20T12:21:55;93950.63;;;11.74;100.00
12219;BME280;6172;42.646;23.344;2022-11-20T12:24:38;93950.22;;;11.63;100.00
12219;BME280;6172;42.646;23.344;2022-11-20T12:27:24;93949.56;;;11.59;100.00
12219;BME280;6172;42.646;23.344;2022-11-20T12:30:08;93962.44;;;11.46;100.00
12219;BME280;6172;42.646;23.344;2022-11-20T12:33:00;93961.34;;;11.56;100.00
12219;BME280;6172;42.646;23.344;2022-11-20T12:35:48;93957.31;;;11.60;100.00
12219;BME280;6172;42.646;23.344;2022-11-20T12:38:52;93930.56;;;11.68;100.00
12219;BME280;6172;42.646;23.344;2022-11-20T12:41:33;93900.66;;;11.64;100.00
12219;BME280;6172;42.646;23.344;2022-11-20T12:44:40;93846.41;;;11.66;100.00
12219;BME280;6172;42.646;23.344;2022-11-20T12:47:33;93846.81;;;11.77;100.00
12219;BME280;6172;42.646;23.344;2022-11-20T12:50:12;93833.25;;;11.86;100.00
12219;BME280;6172;42.646;23.344;2022-11-20T12:52:47;93850.34;;;11.99;100.00
12219;BME280;6172;42.646;23.344;2022-11-20T12:55:33;93856.72;;;11.84;100.00
12219;BME280;6172;42.646;23.344;2022-11-20T12:58:11;93848.22;;;11.82;100.00
12219;BME280;6172;42.646;23.344;2022-11-20T13:00:50;93846.50;;;11.63;100.00
12219;BME280;6172;42.646;23.344;2022-11-20T13:03:34;93869.72;;;11.80;100.00
12219;BME280;6172;42.646;23.344;2022-11-20T13:06:10;93865.13;;;11.89;100.00
12219;BME280;6172;42.646;23.344;2022-11-20T13:08:39;93875.66;;;12.00;100.00
12219;BME280;6172;42.646;23.344;2022-11-20T13:11:15;93895.00;;;12.05;100.00
12219;BME280;6172;42.646;23.344;2022-11-20T13:14:11;93903.00;;;11.87;100.00